createdAt,value
2022-07-30T00:00:57.781Z,20.51
2022-07-30T00:01:57.732Z,20.51
2022-07-30T00:02:57.723Z,20.48
2022-07-30T00:03:57.809Z,20.46
2022-07-30T00:04:57.712Z,20.54
2022-07-30T00:05:57.710Z,20.56
2022-07-30T00:06:57.995Z,20.50
2022-07-30T00:07:57.699Z,20.50
2022-07-30T00:08:57.700Z,20.48
2022-07-30T00:09:57.685Z,20.48
2022-07-30T00:10:57.677Z,20.50
2022-07-30T00:11:57.677Z,20.48
2022-07-30T00:12:57.666Z,20.50
2022-07-30T00:13:57.664Z,20.53
2022-07-30T00:14:57.655Z,20.44
2022-07-30T00:15:57.651Z,20.48
2022-07-30T00:16:58.237Z,20.46
2022-07-30T00:17:57.642Z,20.51
2022-07-30T00:18:57.636Z,20.50
2022-07-30T00:19:57.629Z,20.46
2022-07-30T00:20:57.619Z,20.46
2022-07-30T00:21:57.617Z,20.46
2022-07-30T00:22:57.609Z,20.40
2022-07-30T00:24:01.170Z,20.44
2022-07-30T00:24:57.597Z,20.40
2022-07-30T00:25:57.595Z,20.37
2022-07-30T00:26:57.802Z,20.30
2022-07-30T00:27:57.584Z,20.40
2022-07-30T00:28:57.579Z,20.30
2022-07-30T00:29:57.571Z,20.37
2022-07-30T00:30:57.600Z,20.33
2022-07-30T00:31:57.560Z,20.34
2022-07-30T00:32:57.551Z,20.30
2022-07-30T00:33:57.552Z,20.34
2022-07-30T00:34:57.540Z,20.30
2022-07-30T00:35:57.537Z,20.38
2022-07-30T00:36:58.027Z,20.40
2022-07-30T00:37:57.524Z,20.48
2022-07-30T00:38:57.517Z,20.48
2022-07-30T00:39:57.513Z,20.40
2022-07-30T00:40:57.555Z,20.41
2022-07-30T00:41:57.501Z,20.46
2022-07-30T00:42:57.495Z,20.40
2022-07-30T00:43:57.497Z,20.31
2022-07-30T00:44:57.482Z,20.34
2022-07-30T00:45:57.552Z,20.26
2022-07-30T00:46:57.815Z,20.33
2022-07-30T00:47:57.467Z,20.33
2022-07-30T00:48:57.485Z,20.35
2022-07-30T00:49:57.455Z,20.33
2022-07-30T00:50:57.447Z,20.26
2022-07-30T00:51:57.446Z,20.26
2022-07-30T00:52:57.436Z,20.15
2022-07-30T00:53:57.432Z,20.19
2022-07-30T00:54:57.423Z,20.10
2022-07-30T00:55:57.420Z,20.20
2022-07-30T00:56:57.512Z,20.25
2022-07-30T00:57:57.408Z,20.15
2022-07-30T00:58:57.401Z,20.19
2022-07-30T00:59:57.396Z,20.08
2022-07-30T01:00:57.527Z,20.17
2022-07-30T01:01:57.428Z,20.19
2022-07-30T01:02:57.378Z,20.16
2022-07-30T01:03:57.373Z,20.16
2022-07-30T01:04:57.365Z,20.17
2022-07-30T01:05:57.362Z,20.16
2022-07-30T01:06:57.672Z,20.19
2022-07-30T01:07:57.349Z,20.08
2022-07-30T01:08:57.338Z,20.00
2022-07-30T01:09:57.337Z,20.01
2022-07-30T01:10:57.328Z,20.08
2022-07-30T01:11:57.323Z,20.13
2022-07-30T01:12:57.314Z,20.05
2022-07-30T01:13:57.312Z,19.94
2022-07-30T01:14:57.304Z,20.02
2022-07-30T01:15:57.299Z,19.87
2022-07-30T01:16:57.609Z,19.95
2022-07-30T01:17:57.289Z,19.79
2022-07-30T01:18:57.281Z,19.89
2022-07-30T01:19:57.275Z,19.79
2022-07-30T01:20:57.279Z,19.72
2022-07-30T01:21:57.261Z,19.79
2022-07-30T01:22:57.256Z,19.72
2022-07-30T01:23:57.249Z,19.65
2022-07-30T01:24:57.244Z,19.79
2022-07-30T01:25:57.235Z,19.76
2022-07-30T01:26:57.578Z,19.78
2022-07-30T01:27:57.224Z,19.86
2022-07-30T01:28:57.218Z,19.83
2022-07-30T01:29:57.214Z,19.83
2022-07-30T01:30:57.207Z,19.83
2022-07-30T01:31:57.238Z,19.82
2022-07-30T01:32:57.195Z,19.76
2022-07-30T01:33:57.185Z,19.79
2022-07-30T01:34:57.182Z,19.75
2022-07-30T01:35:57.175Z,19.67
2022-07-30T01:36:57.168Z,19.62
2022-07-30T01:37:57.161Z,19.76
2022-07-30T01:38:57.156Z,19.72
2022-07-30T01:39:57.152Z,19.79
2022-07-30T01:40:57.144Z,19.70
2022-07-30T01:41:57.136Z,19.67
2022-07-30T01:42:57.132Z,19.67
2022-07-30T01:43:57.127Z,19.53
2022-07-30T01:44:57.119Z,19.67
2022-07-30T01:45:57.127Z,19.67
2022-07-30T01:46:57.141Z,19.61
2022-07-30T01:47:57.099Z,19.64
2022-07-30T01:48:57.131Z,19.62
2022-07-30T01:49:57.084Z,19.55
2022-07-30T01:50:57.079Z,19.57
2022-07-30T01:51:57.072Z,19.49
2022-07-30T01:52:57.068Z,19.46
2022-07-30T01:53:57.159Z,19.52
2022-07-30T01:54:57.054Z,19.42
2022-07-30T01:55:57.046Z,19.53
2022-07-30T01:56:57.444Z,19.49
2022-07-30T01:57:57.034Z,19.53
2022-07-30T01:58:57.034Z,19.47
2022-07-30T01:59:57.021Z,19.45
2022-07-30T02:00:57.058Z,19.35
2022-07-30T02:01:57.008Z,19.38
2022-07-30T02:02:57.005Z,19.34
2022-07-30T02:03:57.057Z,19.38
2022-07-30T02:04:56.991Z,19.35
2022-07-30T02:05:56.989Z,19.30
2022-07-30T02:06:57.055Z,19.32
2022-07-30T02:07:56.969Z,19.31
2022-07-30T02:08:56.965Z,19.30
2022-07-30T02:09:56.963Z,19.31
2022-07-30T02:10:56.953Z,19.38
2022-07-30T02:11:56.944Z,19.40
2022-07-30T02:12:56.940Z,19.38
2022-07-30T02:13:56.932Z,19.38
2022-07-30T02:14:56.925Z,19.34
2022-07-30T02:15:56.953Z,19.35
2022-07-30T02:16:56.954Z,19.38
2022-07-30T02:17:56.905Z,19.39
2022-07-30T02:18:56.909Z,19.40
2022-07-30T02:19:56.894Z,19.49
2022-07-30T02:20:56.891Z,19.49
2022-07-30T02:21:56.879Z,19.47
2022-07-30T02:22:56.876Z,19.49
2022-07-30T02:23:56.867Z,19.50
2022-07-30T02:24:56.861Z,19.47
2022-07-30T02:25:56.858Z,19.52
2022-07-30T02:26:56.915Z,19.42
2022-07-30T02:27:56.842Z,19.45
2022-07-30T02:28:56.836Z,19.42
2022-07-30T02:29:56.828Z,19.38
2022-07-30T02:30:56.825Z,19.30
2022-07-30T02:31:56.868Z,19.35
2022-07-30T02:32:56.823Z,19.31
2022-07-30T02:33:56.800Z,19.27
2022-07-30T02:34:56.802Z,19.30
2022-07-30T02:35:56.787Z,19.34
2022-07-30T02:36:56.824Z,19.34
2022-07-30T02:37:56.776Z,19.34
2022-07-30T02:38:56.772Z,19.30
2022-07-30T02:39:56.763Z,19.21
2022-07-30T02:40:56.761Z,19.23
2022-07-30T02:41:56.750Z,19.30
2022-07-30T02:42:56.749Z,19.32
2022-07-30T02:43:56.738Z,19.28
2022-07-30T02:44:56.731Z,19.25
2022-07-30T02:45:56.723Z,19.28
2022-07-30T02:46:56.773Z,19.12
2022-07-30T02:47:56.709Z,19.17
2022-07-30T02:48:56.768Z,19.17
2022-07-30T02:49:56.695Z,19.20
2022-07-30T02:50:56.691Z,19.16
2022-07-30T02:51:56.684Z,19.16
2022-07-30T02:52:56.679Z,19.06
2022-07-30T02:53:56.671Z,19.12
2022-07-30T02:54:56.666Z,19.05
2022-07-30T02:55:56.656Z,19.06
2022-07-30T02:56:56.650Z,18.96
2022-07-30T02:57:56.643Z,18.99
2022-07-30T02:58:56.638Z,19.02
2022-07-30T02:59:56.633Z,19.06
2022-07-30T03:00:56.677Z,18.97
2022-07-30T03:01:56.688Z,19.06
2022-07-30T03:02:57.099Z,18.94
2022-07-30T03:03:56.603Z,18.96
2022-07-30T03:04:56.596Z,18.93
2022-07-30T03:05:56.589Z,18.93
2022-07-30T03:06:56.584Z,18.89
2022-07-30T03:07:56.579Z,18.90
2022-07-30T03:08:56.572Z,18.91
2022-07-30T03:09:56.565Z,18.91
2022-07-30T03:10:56.659Z,18.91
2022-07-30T03:11:56.549Z,18.91
2022-07-30T03:12:56.549Z,18.94
2022-07-30T03:13:56.536Z,18.86
2022-07-30T03:14:56.531Z,18.93
2022-07-30T03:15:56.621Z,18.94
2022-07-30T03:16:56.535Z,18.89
2022-07-30T03:17:56.508Z,19.20
2022-07-30T03:18:56.505Z,19.06
2022-07-30T03:19:56.496Z,19.21
2022-07-30T03:20:56.490Z,19.09
2022-07-30T03:21:56.481Z,19.10
2022-07-30T03:22:56.477Z,19.09
2022-07-30T03:23:56.469Z,19.05
2022-07-30T03:24:56.506Z,19.06
2022-07-30T03:25:56.455Z,18.99
2022-07-30T03:26:56.449Z,18.96
2022-07-30T03:27:56.440Z,19.05
2022-07-30T03:28:56.437Z,19.01
2022-07-30T03:29:56.427Z,19.07
2022-07-30T03:30:56.469Z,19.06
2022-07-30T03:31:56.525Z,19.05
2022-07-30T03:32:56.409Z,19.01
2022-07-30T03:33:56.403Z,19.07
2022-07-30T03:34:56.464Z,19.07
2022-07-30T03:35:56.388Z,18.99
2022-07-30T03:36:56.382Z,18.99
2022-07-30T03:37:56.373Z,19.06
2022-07-30T03:38:56.373Z,19.05
2022-07-30T03:39:56.361Z,19.02
2022-07-30T03:40:56.354Z,19.05
2022-07-30T03:41:56.345Z,19.05
2022-07-30T03:42:56.340Z,19.10
2022-07-30T03:43:56.337Z,19.10
2022-07-30T03:44:56.327Z,19.02
2022-07-30T03:45:56.319Z,19.06
2022-07-30T03:46:56.353Z,19.05
2022-07-30T03:47:56.305Z,19.02
2022-07-30T03:48:56.339Z,19.07
2022-07-30T03:49:56.356Z,19.06
2022-07-30T03:50:56.287Z,19.07
2022-07-30T03:51:56.280Z,19.15
2022-07-30T03:52:56.272Z,18.99
2022-07-30T03:53:56.264Z,18.99
2022-07-30T03:54:56.260Z,18.99
2022-07-30T03:55:56.250Z,19.10
2022-07-30T03:56:56.245Z,18.97
2022-07-30T03:57:56.236Z,18.97
2022-07-30T03:58:56.233Z,18.97
2022-07-30T03:59:56.227Z,18.94
2022-07-30T04:00:56.317Z,18.89
2022-07-30T04:01:56.264Z,18.86
2022-07-30T04:02:56.207Z,18.82
2022-07-30T04:03:56.304Z,18.78
2022-07-30T04:04:56.208Z,18.74
2022-07-30T04:05:56.182Z,18.72
2022-07-30T04:06:56.177Z,18.84
2022-07-30T04:07:56.170Z,18.83
2022-07-30T04:08:56.163Z,18.78
2022-07-30T04:09:56.156Z,18.75
2022-07-30T04:10:56.199Z,18.84
2022-07-30T04:11:56.140Z,18.84
2022-07-30T04:12:56.136Z,18.90
2022-07-30T04:13:56.127Z,18.89
2022-07-30T04:14:56.125Z,18.93
2022-07-30T04:16:40.169Z,19.02
2022-07-30T04:16:56.118Z,19.02
2022-07-30T04:17:56.099Z,18.97
2022-07-30T04:18:56.096Z,18.96
2022-07-30T04:19:56.087Z,18.93
2022-07-30T04:20:56.080Z,18.87
2022-07-30T04:21:56.071Z,18.93
2022-07-30T04:22:56.072Z,18.84
2022-07-30T04:24:04.459Z,18.82
2022-07-30T04:24:56.052Z,18.82
2022-07-30T04:25:56.044Z,18.86
2022-07-30T04:26:56.039Z,18.79
2022-07-30T04:28:03.160Z,18.74
2022-07-30T04:28:56.026Z,18.82
2022-07-30T04:29:56.022Z,18.84
2022-07-30T04:30:56.055Z,18.91
2022-07-30T04:31:56.001Z,18.94
2022-07-30T04:32:55.997Z,18.96
2022-07-30T04:33:55.988Z,18.89
2022-07-30T04:34:55.987Z,18.87
2022-07-30T04:35:55.976Z,18.91
2022-07-30T04:36:55.970Z,18.89
2022-07-30T04:37:55.961Z,18.91
2022-07-30T04:38:55.957Z,19.05
2022-07-30T04:39:55.948Z,19.06
2022-07-30T04:40:55.943Z,19.42
2022-07-30T04:41:55.935Z,19.76
2022-07-30T04:42:55.944Z,19.90
2022-07-30T04:43:55.923Z,20.15
2022-07-30T04:44:55.916Z,20.66
2022-07-30T04:45:55.909Z,20.96
2022-07-30T04:46:55.908Z,21.26
2022-07-30T04:47:55.897Z,21.58
2022-07-30T04:48:55.927Z,21.91
2022-07-30T04:49:55.889Z,22.21
2022-07-30T04:50:55.882Z,22.51
2022-07-30T04:51:55.875Z,22.78
2022-07-30T04:52:55.871Z,23.07
2022-07-30T04:53:55.864Z,23.32
2022-07-30T04:54:55.862Z,23.47
2022-07-30T04:55:55.856Z,23.82
2022-07-30T04:56:55.854Z,23.90
2022-07-30T04:57:55.849Z,24.18
2022-07-30T04:58:55.849Z,24.36
2022-07-30T04:59:55.845Z,24.45
2022-07-30T05:00:55.839Z,24.66
2022-07-30T05:01:55.928Z,24.77
2022-07-30T05:02:55.836Z,24.71
2022-07-30T05:03:55.831Z,24.41
2022-07-30T05:04:55.878Z,24.56
2022-07-30T05:05:57.636Z,24.68
2022-07-30T05:06:55.828Z,24.83
2022-07-30T05:07:55.824Z,25.02
2022-07-30T05:08:55.822Z,25.11
2022-07-30T05:09:55.820Z,25.39
2022-07-30T05:10:55.820Z,25.60
2022-07-30T05:11:55.816Z,25.69
2022-07-30T05:12:55.815Z,25.71
2022-07-30T05:13:55.815Z,25.61
2022-07-30T05:14:55.816Z,25.41
2022-07-30T05:15:55.851Z,25.23
2022-07-30T05:16:55.814Z,25.38
2022-07-30T05:17:55.807Z,25.54
2022-07-30T05:18:55.807Z,25.61
2022-07-30T05:19:55.806Z,25.75
2022-07-30T05:20:55.804Z,25.86
2022-07-30T05:21:55.800Z,25.86
2022-07-30T05:22:55.800Z,25.96
2022-07-30T05:23:55.796Z,25.81
2022-07-30T05:24:55.795Z,25.74
2022-07-30T05:25:55.793Z,25.69
2022-07-30T05:26:55.790Z,25.53
2022-07-30T05:27:55.798Z,25.45
2022-07-30T05:28:56.999Z,25.41
2022-07-30T05:29:55.782Z,25.35
2022-07-30T05:30:55.821Z,25.22
2022-07-30T05:31:55.779Z,25.19
2022-07-30T05:32:56.046Z,25.23
2022-07-30T05:33:58.285Z,25.19
2022-07-30T05:34:55.771Z,25.22
2022-07-30T05:35:55.767Z,25.12
2022-07-30T05:36:55.765Z,25.07
2022-07-30T05:37:55.764Z,24.92
2022-07-30T05:38:55.758Z,24.86
2022-07-30T05:39:58.892Z,24.80
2022-07-30T05:40:55.751Z,24.75
2022-07-30T05:41:55.754Z,24.84
2022-07-30T05:42:55.754Z,24.77
2022-07-30T05:43:56.245Z,24.68
2022-07-30T05:44:55.740Z,24.66
2022-07-30T05:45:55.772Z,24.63
2022-07-30T05:46:55.739Z,24.75
2022-07-30T05:47:55.946Z,24.53
2022-07-30T05:48:55.807Z,24.48
2022-07-30T05:49:55.729Z,24.31
2022-07-30T05:50:55.723Z,24.19
2022-07-30T05:51:55.724Z,24.12
2022-07-30T05:52:55.724Z,24.18
2022-07-30T05:53:55.723Z,24.16
2022-07-30T05:54:55.721Z,24.16
2022-07-30T05:55:55.714Z,24.16
2022-07-30T05:56:55.707Z,24.18
2022-07-30T05:57:55.703Z,24.31
2022-07-30T05:58:55.697Z,24.16
2022-07-30T05:59:55.699Z,24.26
2022-07-30T06:00:55.691Z,24.12
2022-07-30T06:01:55.732Z,24.12
2022-07-30T06:02:55.685Z,24.06
2022-07-30T06:03:55.786Z,23.94
2022-07-30T06:04:55.715Z,23.92
2022-07-30T06:05:55.679Z,23.93
2022-07-30T06:06:55.673Z,23.87
2022-07-30T06:07:55.671Z,23.77
2022-07-30T06:08:55.665Z,23.71
2022-07-30T06:09:55.666Z,23.69
2022-07-30T06:10:55.659Z,23.72
2022-07-30T06:11:57.391Z,23.74
2022-07-30T06:12:55.651Z,23.79
2022-07-30T06:13:55.651Z,23.78
2022-07-30T06:14:55.649Z,23.86
2022-07-30T06:15:55.789Z,23.89
2022-07-30T06:16:55.640Z,23.92
2022-07-30T06:18:02.303Z,24.04
2022-07-30T06:18:55.632Z,24.04
2022-07-30T06:19:55.633Z,24.00
2022-07-30T06:20:55.628Z,24.00
2022-07-30T06:22:01.473Z,24.02
2022-07-30T06:22:55.622Z,24.12
2022-07-30T06:23:55.620Z,24.14
2022-07-30T06:24:55.614Z,24.09
2022-07-30T06:25:55.614Z,23.96
2022-07-30T06:26:55.607Z,23.86
2022-07-30T06:27:55.605Z,23.82
2022-07-30T06:28:55.601Z,23.74
2022-07-30T06:29:55.601Z,23.74
2022-07-30T06:30:55.614Z,23.63
2022-07-30T06:31:55.597Z,23.54
2022-07-30T06:32:55.587Z,23.50
2022-07-30T06:33:55.587Z,23.54
2022-07-30T06:35:04.022Z,23.45
2022-07-30T06:35:55.584Z,23.49
2022-07-30T06:36:55.577Z,23.41
2022-07-30T06:38:05.636Z,23.47
2022-07-30T06:38:55.569Z,23.54
2022-07-30T06:39:57.922Z,23.49
2022-07-30T06:40:59.192Z,23.39
2022-07-30T06:41:55.559Z,23.42
2022-07-30T06:42:55.554Z,23.47
2022-07-30T06:43:55.553Z,23.62
2022-07-30T06:44:55.547Z,23.59
2022-07-30T06:45:55.563Z,23.74
2022-07-30T06:46:55.539Z,23.75
2022-07-30T06:47:55.538Z,23.69
2022-07-30T06:48:55.581Z,23.64
2022-07-30T06:49:55.531Z,23.60
2022-07-30T06:50:55.526Z,23.57
2022-07-30T06:51:55.523Z,23.62
2022-07-30T06:52:55.518Z,23.60
2022-07-30T06:53:55.517Z,23.60
2022-07-30T06:54:55.511Z,23.71
2022-07-30T06:55:58.395Z,23.75
2022-07-30T06:57:55.501Z,23.89
2022-07-30T06:58:55.499Z,23.89
2022-07-30T06:59:56.825Z,24.04
2022-07-30T07:00:55.493Z,24.08
2022-07-30T07:01:55.560Z,24.12
2022-07-30T07:02:55.486Z,24.11
2022-07-30T07:03:55.526Z,24.26
2022-07-30T07:04:55.479Z,24.27
2022-07-30T07:05:55.474Z,24.34
2022-07-30T07:06:55.472Z,24.29
2022-07-30T07:07:59.486Z,24.36
2022-07-30T07:08:55.466Z,24.42
2022-07-30T07:09:55.463Z,24.44
2022-07-30T07:10:55.461Z,24.59
2022-07-30T07:11:55.455Z,24.66
2022-07-30T07:12:55.453Z,24.68
2022-07-30T07:13:55.450Z,24.79
2022-07-30T07:14:55.448Z,24.79
2022-07-30T07:15:55.542Z,24.80
2022-07-30T07:16:55.508Z,24.89
2022-07-30T07:17:55.436Z,24.92
2022-07-30T07:18:55.435Z,25.05
2022-07-30T07:19:59.589Z,24.97
2022-07-30T07:20:55.436Z,25.05
2022-07-30T07:21:55.426Z,25.05
2022-07-30T07:22:55.424Z,25.08
2022-07-30T07:23:55.420Z,25.24
2022-07-30T07:24:55.424Z,25.17
2022-07-30T07:25:55.415Z,25.27
2022-07-30T07:26:55.413Z,25.31
2022-07-30T07:28:11.993Z,25.38
2022-07-30T07:28:55.408Z,25.35
2022-07-30T07:30:01.862Z,25.48
2022-07-30T07:30:55.445Z,25.60
2022-07-30T07:32:05.398Z,25.64
2022-07-30T07:32:55.399Z,25.64
2022-07-30T07:33:55.395Z,25.67
2022-07-30T07:34:55.395Z,25.72
2022-07-30T07:35:55.392Z,25.76
2022-07-30T07:36:55.391Z,25.83
2022-07-30T07:37:55.384Z,25.81
2022-07-30T07:38:55.384Z,25.97
2022-07-30T07:39:55.381Z,26.00
2022-07-30T07:40:55.382Z,25.98
2022-07-30T07:41:55.375Z,26.11
2022-07-30T07:42:55.376Z,26.08
2022-07-30T07:43:55.372Z,26.12
2022-07-30T07:44:55.370Z,26.20
2022-07-30T07:45:55.441Z,26.21
2022-07-30T07:46:55.413Z,26.23
2022-07-30T07:47:55.365Z,26.23
2022-07-30T07:48:55.425Z,26.13
2022-07-30T07:49:55.360Z,26.19
2022-07-30T07:50:59.896Z,26.12
2022-07-30T07:51:55.357Z,26.20
2022-07-30T07:52:55.972Z,26.19
2022-07-30T07:54:18.590Z,26.27
2022-07-30T07:54:55.353Z,26.35
2022-07-30T07:55:55.406Z,26.47
2022-07-30T07:56:55.363Z,26.47
2022-07-30T07:57:55.345Z,26.49
2022-07-30T07:58:56.753Z,26.53
2022-07-30T07:59:55.344Z,26.51
2022-07-30T08:00:55.517Z,26.57
2022-07-30T08:01:55.380Z,26.66
2022-07-30T08:02:55.446Z,26.64
2022-07-30T08:03:55.338Z,26.72
2022-07-30T08:04:55.338Z,26.73
2022-07-30T08:06:05.648Z,26.57
2022-07-30T08:06:55.335Z,26.64
2022-07-30T08:07:55.330Z,26.57
2022-07-30T08:08:55.331Z,26.68
2022-07-30T08:09:55.329Z,26.61
2022-07-30T08:10:55.334Z,26.72
2022-07-30T08:11:55.326Z,26.71
2022-07-30T08:12:55.325Z,26.76
2022-07-30T08:13:55.345Z,26.88
2022-07-30T08:14:55.322Z,26.97
2022-07-30T08:15:55.319Z,27.01
2022-07-30T08:16:55.450Z,26.97
2022-07-30T08:17:55.315Z,27.09
2022-07-30T08:18:55.318Z,27.11
2022-07-30T08:19:55.314Z,26.83
2022-07-30T08:20:55.315Z,26.87
2022-07-30T08:22:55.310Z,26.98
2022-07-30T08:23:55.310Z,26.98
2022-07-30T08:24:55.308Z,26.96
2022-07-30T08:25:55.308Z,27.15
2022-07-30T08:26:55.306Z,27.20
2022-07-30T08:27:55.306Z,27.09
2022-07-30T08:28:55.303Z,27.06
2022-07-30T08:29:55.306Z,27.12
2022-07-30T08:30:56.964Z,27.28
2022-07-30T08:31:55.302Z,27.33
2022-07-30T08:32:55.298Z,27.35
2022-07-30T08:33:55.298Z,27.39
2022-07-30T08:34:55.297Z,27.42
2022-07-30T08:36:03.956Z,27.42
2022-07-30T08:36:55.294Z,27.50
2022-07-30T08:37:55.296Z,27.45
2022-07-30T08:38:55.293Z,27.50
2022-07-30T08:39:55.295Z,27.53
2022-07-30T08:40:55.291Z,27.61
2022-07-30T08:41:55.292Z,27.50
2022-07-30T08:42:55.289Z,27.65
2022-07-30T08:43:55.291Z,27.66
2022-07-30T08:44:55.286Z,27.72
2022-07-30T08:45:55.288Z,27.66
2022-07-30T08:46:55.285Z,27.80
2022-07-30T08:47:55.287Z,27.86
2022-07-30T08:48:55.286Z,27.95
2022-07-30T08:49:55.286Z,28.02
2022-07-30T08:50:55.283Z,28.06
2022-07-30T08:51:55.285Z,28.11
2022-07-30T08:52:55.283Z,28.24
2022-07-30T08:53:55.283Z,28.21
2022-07-30T08:54:55.281Z,28.27
2022-07-30T08:55:58.603Z,28.23
2022-07-30T08:56:55.279Z,28.23
2022-07-30T08:57:55.279Z,28.24
2022-07-30T08:58:55.279Z,28.24
2022-07-30T09:00:00.584Z,28.27
2022-07-30T09:01:55.280Z,28.43
2022-07-30T09:02:55.275Z,28.43
2022-07-30T09:03:55.403Z,28.39
2022-07-30T09:04:55.276Z,28.51
2022-07-30T09:05:55.277Z,28.55
2022-07-30T09:06:55.275Z,28.57
2022-07-30T09:07:55.281Z,28.69
2022-07-30T09:08:55.273Z,28.65
2022-07-30T09:09:55.280Z,28.58
2022-07-30T09:10:55.273Z,28.72
2022-07-30T09:11:55.275Z,28.61
2022-07-30T09:12:55.274Z,28.60
2022-07-30T09:13:55.275Z,28.72
2022-07-30T09:14:55.273Z,28.69
2022-07-30T09:15:55.274Z,28.70
2022-07-30T09:16:55.273Z,28.89
2022-07-30T09:17:55.276Z,28.87
2022-07-30T09:18:55.283Z,28.94
2022-07-30T09:19:55.274Z,28.98
2022-07-30T09:20:55.272Z,28.95
2022-07-30T09:21:55.274Z,29.05
2022-07-30T09:22:55.275Z,29.08
2022-07-30T09:23:55.274Z,29.14
2022-07-30T09:24:55.272Z,29.14
2022-07-30T09:25:55.276Z,29.29
2022-07-30T09:26:55.272Z,29.27
2022-07-30T09:27:55.326Z,29.15
2022-07-30T09:28:55.275Z,28.97
2022-07-30T09:29:55.275Z,28.98
2022-07-30T09:30:55.273Z,29.11
2022-07-30T09:31:55.276Z,29.11
2022-07-30T09:32:55.274Z,29.12
2022-07-30T09:33:55.274Z,29.21
2022-07-30T09:34:55.277Z,29.32
2022-07-30T09:35:55.278Z,29.41
2022-07-30T09:36:55.274Z,29.18
2022-07-30T09:37:55.277Z,29.35
2022-07-30T09:38:55.274Z,29.47
2022-07-30T09:39:56.248Z,29.30
2022-07-30T09:40:57.752Z,29.30
2022-07-30T09:41:55.276Z,29.17
2022-07-30T09:42:55.277Z,29.02
2022-07-30T09:43:55.277Z,28.98
2022-07-30T09:44:55.278Z,28.94
2022-07-30T09:45:57.148Z,28.97
2022-07-30T09:46:55.277Z,28.94
2022-07-30T09:47:55.280Z,29.02
2022-07-30T09:48:55.312Z,29.07
2022-07-30T09:49:55.280Z,29.23
2022-07-30T09:50:55.278Z,29.48
2022-07-30T09:51:57.003Z,29.32
2022-07-30T09:52:55.277Z,29.25
2022-07-30T09:53:55.280Z,29.21
2022-07-30T09:54:55.281Z,29.12
2022-07-30T09:55:55.280Z,29.07
2022-07-30T09:56:55.282Z,29.02
2022-07-30T09:57:56.643Z,28.87
2022-07-30T09:58:55.299Z,28.87
2022-07-30T09:59:55.281Z,28.88
2022-07-30T10:02:01.073Z,28.76
2022-07-30T10:02:55.287Z,28.73
2022-07-30T10:03:55.281Z,28.89
2022-07-30T10:04:55.286Z,28.88
2022-07-30T10:05:55.294Z,28.57
2022-07-30T10:06:55.284Z,28.28
2022-07-30T10:07:55.284Z,28.42
2022-07-30T10:08:55.309Z,28.42
2022-07-30T10:09:55.282Z,28.43
2022-07-30T10:10:55.285Z,28.46
2022-07-30T10:11:55.282Z,28.42
2022-07-30T10:12:55.286Z,28.39
2022-07-30T10:13:55.287Z,28.43
2022-07-30T10:14:55.298Z,28.50
2022-07-30T10:15:55.283Z,28.64
2022-07-30T10:16:55.283Z,28.58
2022-07-30T10:17:55.284Z,28.51
2022-07-30T10:18:55.285Z,28.51
2022-07-30T10:19:55.287Z,28.51
2022-07-30T10:20:55.287Z,28.52
2022-07-30T10:21:55.282Z,28.48
2022-07-30T10:22:55.285Z,28.51
2022-07-30T10:23:55.284Z,28.43
2022-07-30T10:24:55.284Z,28.45
2022-07-30T10:25:55.686Z,28.35
2022-07-30T10:26:55.285Z,28.28
2022-07-30T10:27:57.133Z,28.30
2022-07-30T10:28:55.283Z,28.28
2022-07-30T10:29:55.281Z,28.39
2022-07-30T10:30:55.285Z,28.40
2022-07-30T10:31:55.280Z,28.33
2022-07-30T10:32:55.282Z,28.35
2022-07-30T10:33:55.280Z,28.40
2022-07-30T10:34:55.283Z,28.52
2022-07-30T10:35:55.280Z,28.54
2022-07-30T10:36:55.281Z,28.51
2022-07-30T10:37:55.280Z,28.50
2022-07-30T10:38:55.284Z,28.35
2022-07-30T10:39:55.279Z,28.24
2022-07-30T10:40:55.280Z,28.27
2022-07-30T10:41:55.278Z,28.27
2022-07-30T10:42:55.281Z,28.09
2022-07-30T10:43:55.280Z,28.03
2022-07-30T10:44:55.284Z,28.11
2022-07-30T10:45:55.279Z,28.24
2022-07-30T10:46:55.280Z,28.50
2022-07-30T10:47:55.279Z,28.57
2022-07-30T10:48:55.300Z,28.74
2022-07-30T10:49:55.277Z,28.97
2022-07-30T10:50:55.279Z,29.07
2022-07-30T10:51:55.277Z,29.07
2022-07-30T10:52:55.909Z,29.07
2022-07-30T10:53:55.276Z,29.27
2022-07-30T10:54:55.309Z,29.51
2022-07-30T10:55:55.277Z,29.47
2022-07-30T10:56:55.278Z,29.48
2022-07-30T10:57:55.276Z,29.47
2022-07-30T10:58:55.281Z,29.45
2022-07-30T10:59:55.278Z,29.49
2022-07-30T11:00:55.289Z,29.30
2022-07-30T11:01:55.277Z,29.25
2022-07-30T11:02:55.279Z,29.45
2022-07-30T11:03:55.278Z,29.69
2022-07-30T11:04:55.279Z,29.88
2022-07-30T11:05:55.278Z,30.00
2022-07-30T11:06:55.281Z,30.18
2022-07-30T11:07:55.279Z,30.23
2022-07-30T11:08:56.996Z,30.37
2022-07-30T11:10:05.321Z,30.42
2022-07-30T11:10:55.283Z,30.53
2022-07-30T11:12:05.694Z,30.61
2022-07-30T11:12:55.290Z,30.75
2022-07-30T11:13:55.284Z,30.90
2022-07-30T11:14:55.286Z,30.91
2022-07-30T11:15:55.285Z,30.96
2022-07-30T11:16:55.287Z,30.97
2022-07-30T11:17:55.287Z,30.70
2022-07-30T11:19:27.413Z,30.76
2022-07-30T11:19:59.563Z,30.61
2022-07-30T11:20:55.292Z,30.08
2022-07-30T11:21:55.291Z,29.57
2022-07-30T11:22:55.293Z,29.45
2022-07-30T11:23:56.717Z,29.58
2022-07-30T11:24:55.304Z,29.81
2022-07-30T11:25:55.302Z,29.99
2022-07-30T11:26:55.298Z,30.13
2022-07-30T11:27:55.299Z,30.38
2022-07-30T11:28:55.298Z,30.57
2022-07-30T11:29:55.297Z,30.83
2022-07-30T11:30:55.305Z,31.00
2022-07-30T11:31:58.527Z,31.04
2022-07-30T11:32:56.337Z,31.37
2022-07-30T11:33:55.303Z,31.45
2022-07-30T11:34:55.306Z,31.59
2022-07-30T11:35:55.304Z,31.27
2022-07-30T11:36:55.308Z,31.20
2022-07-30T11:37:55.308Z,31.22
2022-07-30T11:38:55.310Z,31.37
2022-07-30T11:39:55.432Z,31.52
2022-07-30T11:40:55.315Z,31.75
2022-07-30T11:41:55.314Z,31.75
2022-07-30T11:42:55.317Z,31.82
2022-07-30T11:43:55.318Z,31.45
2022-07-30T11:44:55.321Z,31.31
2022-07-30T11:45:55.321Z,31.13
2022-07-30T11:46:55.325Z,30.66
2022-07-30T11:47:55.327Z,30.54
2022-07-30T11:48:55.368Z,30.44
2022-07-30T11:49:55.328Z,30.49
2022-07-30T11:50:55.332Z,30.26
2022-07-30T11:51:55.332Z,30.22
2022-07-30T11:52:55.336Z,30.00
2022-07-30T11:53:55.334Z,29.92
2022-07-30T11:54:55.338Z,30.22
2022-07-30T11:55:55.336Z,30.49
2022-07-30T11:56:55.341Z,30.60
2022-07-30T11:57:55.341Z,30.72
2022-07-30T11:58:55.343Z,30.73
2022-07-30T11:59:55.369Z,30.76
2022-07-30T12:00:55.345Z,30.75
2022-07-30T12:01:55.343Z,30.72
2022-07-30T12:02:55.349Z,30.79
2022-07-30T12:03:55.354Z,30.93
2022-07-30T12:04:55.411Z,30.91
2022-07-30T12:05:55.349Z,30.97
2022-07-30T12:06:55.353Z,31.00
2022-07-30T12:07:55.353Z,30.94
2022-07-30T12:08:58.665Z,30.81
2022-07-30T12:09:55.355Z,30.96
2022-07-30T12:10:55.358Z,31.07
2022-07-30T12:11:55.359Z,31.22
2022-07-30T12:12:55.360Z,31.38
2022-07-30T12:13:55.381Z,31.54
2022-07-30T12:14:58.991Z,31.60
2022-07-30T12:15:55.372Z,31.74
2022-07-30T12:16:55.369Z,31.88
2022-07-30T12:18:11.035Z,31.97
2022-07-30T12:18:55.377Z,31.98
2022-07-30T12:19:55.371Z,32.12
2022-07-30T12:20:55.375Z,31.92
2022-07-30T12:21:55.375Z,32.03
2022-07-30T12:22:55.379Z,31.91
2022-07-30T12:23:55.392Z,31.97
2022-07-30T12:24:55.383Z,31.94
2022-07-30T12:25:55.383Z,31.90
2022-07-30T12:26:55.388Z,31.88
2022-07-30T12:27:55.386Z,31.82
2022-07-30T12:28:55.402Z,31.59
2022-07-30T12:29:55.392Z,31.28
2022-07-30T12:30:55.410Z,31.09
2022-07-30T12:31:55.396Z,31.13
2022-07-30T12:32:55.399Z,30.86
2022-07-30T12:33:55.402Z,30.88
2022-07-30T12:34:55.411Z,30.98
2022-07-30T12:35:55.419Z,31.01
2022-07-30T12:36:55.422Z,31.18
2022-07-30T12:37:55.416Z,31.34
2022-07-30T12:38:55.410Z,31.32
2022-07-30T12:39:55.412Z,31.30
2022-07-30T12:40:55.415Z,31.45
2022-07-30T12:41:55.415Z,31.62
2022-07-30T12:42:55.418Z,31.65
2022-07-30T12:43:55.417Z,31.56
2022-07-30T12:44:55.423Z,31.42
2022-07-30T12:45:55.420Z,31.38
2022-07-30T12:46:55.426Z,31.22
2022-07-30T12:47:55.425Z,31.20
2022-07-30T12:48:55.532Z,31.12
2022-07-30T12:49:55.580Z,31.05
2022-07-30T12:50:55.434Z,31.01
2022-07-30T12:51:59.674Z,30.88
2022-07-30T12:52:55.434Z,30.91
2022-07-30T12:53:55.440Z,30.85
2022-07-30T12:54:55.440Z,30.79
2022-07-30T12:55:55.440Z,30.81
2022-07-30T12:56:55.442Z,30.97